Time;durP1;ratioP1;P1;durP2;ratioP2;P2;SDS_P1;SDS_P2;PMS_P1;PMS_P2;Temp;Humidity;BMP_temperature;BMP_pressure;BME280_temperature;BME280_humidity;BME280_pressure;Samples;Min_cycle;Max_cycle;Signal;HPM_P1;HPM_P2
2023/09/28 00:01:05;;;;;;;13.45;3.50;;;23.30;90.50;;;;;;10535481;28;20396;-34
2023/09/28 00:06:07;;;;;;;6.70;2.83;;;23.10;90.90;;;;;;10534525;28;20116;-31
2023/09/28 00:11:09;;;;;;;4.55;2.90;;;23.00;91.80;;;;;;10534909;28;20048;-40
2023/09/28 00:16:12;;;;;;;;;;;22.60;93.10;;;;;;10534037;28;20421;-43
2023/09/28 00:21:15;;;;;;;3.08;2.38;;;23.10;91.50;;;;;;10536147;28;19926;-31
2023/09/28 00:26:19;;;;;;;4.65;2.28;;;22.90;92.10;;;;;;10527428;28;20119;-35
2023/09/28 00:31:22;;;;;;;4.45;2.63;;;23.00;91.90;;;;;;10530006;28;20632;-40
2023/09/28 00:36:24;;;;;;;8.20;2.65;;;23.20;92.20;;;;;;10523091;28;20753;-37
2023/09/28 00:41:26;;;;;;;5.72;2.80;;;23.00;92.80;;;;;;10526675;28;20052;-43
2023/09/28 00:46:32;;;;;;;;;;;22.70;93.90;;;;;;10525652;28;20040;-44
2023/09/28 00:51:35;;;;;;;16.90;3.58;;;22.10;97.00;;;;;;10526394;28;20254;-36
2023/09/28 00:56:37;;;;;;;10.85;3.17;;;21.50;99.50;;;;;;10528565;28;20071;-39
2023/09/28 01:01:40;;;;;;;7.50;3.17;;;21.70;99.60;;;;;;10538884;28;20749;-34
2023/09/28 01:06:45;;;;;;;8.48;2.40;;;21.80;98.90;;;;;;10522598;28;20067;-31
2023/09/28 01:11:47;;;;;;;16.23;2.53;;;21.60;99.00;;;;;;10518559;28;20492;-38
2023/09/28 01:16:51;;;;;;;14.77;3.17;;;21.60;98.80;;;;;;10525073;28;20048;-32
2023/09/28 01:21:53;;;;;;;5.93;2.85;;;21.80;98.00;;;;;;10522709;28;20053;-39
2023/09/28 01:26:56;;;;;;;;;;;21.90;97.90;;;;;;10531457;28;20048;-35
2023/09/28 01:31:58;;;;;;;16.33;2.75;;;22.10;95.40;;;;;;10532159;28;20261;-34
2023/09/28 01:37:00;;;;;;;;;;;22.10;95.00;;;;;;10532202;28;20056;-37
2023/09/28 01:42:03;;;;;;;10.02;2.38;;;21.50;98.10;;;;;;10530962;28;20007;-33
2023/09/28 01:47:05;;;;;;;8.60;2.45;;;21.90;95.80;;;;;;10523500;28;20044;-37
2023/09/28 01:52:07;;;;;;;;;;;21.70;97.90;;;;;;10530200;28;20044;-35
2023/09/28 01:57:11;;;;;;;13.33;2.37;;;21.80;96.00;;;;;;10529542;28;19926;-32
2023/09/28 02:02:15;;;;;;;13.20;2.80;;;21.90;95.20;;;;;;10547010;28;20052;-44
2023/09/28 02:07:17;;;;;;;10.30;2.20;;;21.10;97.30;;;;;;10527641;28;20036;-32
2023/09/28 02:12:21;;;;;;;16.83;2.40;;;21.90;95.20;;;;;;10528072;28;20052;-34
2023/09/28 02:17:23;;;;;;;13.85;2.90;;;21.70;95.50;;;;;;10528172;28;20408;-40
2023/09/28 02:22:25;;;;;;;23.70;4.13;;;21.60;96.10;;;;;;10532315;28;20401;-42
2023/09/28 02:27:29;;;;;;;;;;;20.90;97.40;;;;;;10529289;28;20044;-32
2023/09/28 02:32:31;;;;;;;31.13;4.72;;;20.30;99.90;;;;;;10525990;28;19920;-34
2023/09/28 02:37:34;;;;;;;39.03;4.22;;;20.40;99.80;;;;;;10528163;28;20098;-31
2023/09/28 02:42:38;;;;;;;26.50;4.43;;;21.00;98.70;;;;;;10528082;28;20046;-41
2023/09/28 02:47:41;;;;;;;33.97;4.57;;;20.70;99.90;;;;;;10502137;28;20050;-34
2023/09/28 02:52:45;;;;;;;30.80;5.28;;;20.40;99.90;;;;;;10517856;28;20856;-32
2023/09/28 03:15:32;;;;;;;21.55;4.03;;;20.10;99.90;;;;;;10598374;27;20114;-36
2023/09/28 03:20:35;;;;;;;21.95;3.70;;;21.20;99.00;;;;;;10604883;27;20062;-32
2023/09/28 03:25:37;;;;;;;28.17;4.13;;;20.40;99.90;;;;;;10602566;27;20053;-35
2023/09/28 03:30:41;;;;;;;23.30;4.25;;;20.80;99.70;;;;;;10602733;27;20047;-35
2023/09/28 03:35:43;;;;;;;26.90;3.95;;;20.80;99.90;;;;;;10591058;27;20047;-33
2023/09/28 03:40:45;;;;;;;36.80;5.47;;;20.30;99.90;;;;;;10603451;27;20040;-40
2023/09/28 03:45:49;;;;;;;28.73;4.05;;;20.30;99.80;;;;;;10605436;27;20043;-39
2023/09/28 03:50:51;;;;;;;27.00;4.53;;;20.40;99.90;;;;;;10604001;27;20050;-51
2023/09/28 03:55:54;;;;;;;23.65;3.85;;;19.80;99.90;;;;;;10600624;27;20551;-37
2023/09/28 04:00:58;;;;;;;19.52;2.88;;;20.60;99.50;;;;;;10606153;27;20052;-42
2023/09/28 04:06:00;;;;;;;30.77;4.63;;;21.20;98.30;;;;;;10581324;27;20044;-35
2023/09/28 04:11:02;;;;;;;33.17;5.30;;;20.70;98.60;;;;;;10595004;27;20059;-34
2023/09/28 04:16:05;;;;;;;30.02;5.25;;;20.10;99.90;;;;;;10596113;27;20049;-31
2023/09/28 04:21:07;;;;;;;26.30;4.18;;;20.40;99.40;;;;;;10601379;27;20058;-39
2023/09/28 04:26:10;;;;;;;18.15;3.28;;;20.40;98.50;;;;;;10571288;28;20109;-35
2023/09/28 04:31:13;;;;;;;32.25;4.10;;;19.90;99.90;;;;;;10569265;27;20051;-43
2023/09/28 04:36:16;;;;;;;21.02;3.80;;;20.00;99.80;;;;;;10566077;27;20044;-38
2023/09/28 04:41:18;;;;;;;25.83;3.95;;;21.20;97.90;;;;;;10569507;27;20557;-32
2023/09/28 04:46:22;;;;;;;21.13;3.95;;;22.30;93.30;;;;;;10571109;27;20039;-33
2023/09/28 04:51:24;;;;;;;12.05;2.42;;;22.30;93.40;;;;;;10556852;27;20048;-36
2023/09/28 04:56:25;;;;;;;;;;;22.50;92.20;;;;;;10546374;28;20060;-33
2023/09/28 05:01:29;;;;;;;17.80;3.63;;;21.90;93.80;;;;;;10557730;27;19924;-34
2023/09/28 05:06:31;;;;;;;15.90;3.33;;;21.30;96.90;;;;;;10553542;27;20067;-35
2023/09/28 05:11:32;;;;;;;23.67;3.95;;;21.70;95.60;;;;;;10567023;27;20083;-33
2023/09/28 05:16:36;;;;;;;23.55;3.53;;;22.00;94.00;;;;;;10557757;27;20044;-35
2023/09/28 05:21:37;;;;;;;18.25;3.40;;;22.10;93.80;;;;;;10551051;27;20071;-36
2023/09/28 05:26:39;;;;;;;16.65;2.83;;;20.90;97.10;;;;;;10560079;28;20590;-36
2023/09/28 05:31:43;;;;;;;33.70;4.15;;;21.00;98.50;;;;;;10552141;28;20150;-40
2023/09/28 05:36:45;;;;;;;19.58;3.47;;;20.40;98.00;;;;;;10555284;28;20206;-38
2023/09/28 05:41:47;;;;;;;12.32;2.67;;;20.10;99.90;;;;;;10567192;27;20142;-42
2023/09/28 05:46:50;;;;;;;22.25;3.22;;;20.90;98.20;;;;;;10554408;27;20083;-39
2023/09/28 05:51:52;;;;;;;11.27;2.10;;;20.60;98.20;;;;;;10555396;27;20130;-40
2023/09/28 05:56:54;;;;;;;8.80;2.30;;;21.20;96.80;;;;;;10553664;28;20055;-37
2023/09/28 06:01:57;;;;;;;15.68;3.88;;;22.20;93.30;;;;;;10574273;27;20046;-41
2023/09/28 06:06:59;;;;;;;18.13;3.03;;;21.90;93.10;;;;;;10560691;28;20082;-38
2023/09/28 06:12:02;;;;;;;;;;;22.40;91.10;;;;;;10566455;27;20718;-41
2023/09/28 06:17:05;;;;;;;30.92;3.95;;;21.40;94.50;;;;;;10546247;28;19919;-35
2023/09/28 06:22:09;;;;;;;20.40;3.10;;;20.40;98.00;;;;;;10564267;28;20074;-35
2023/09/28 06:27:11;;;;;;;9.63;2.33;;;21.90;94.10;;;;;;10568235;27;20055;-43
2023/09/28 06:32:14;;;;;;;26.58;3.30;;;21.30;96.30;;;;;;10548740;28;20124;-40
2023/09/28 06:37:16;;;;;;;8.57;2.13;;;20.20;98.80;;;;;;10568194;27;20097;-42
2023/09/28 06:42:18;;;;;;;19.30;3.15;;;21.00;98.00;;;;;;10563030;28;20127;-36
2023/09/28 06:47:22;;;;;;;13.70;3.25;;;21.30;96.00;;;;;;10567534;28;20138;-37
2023/09/28 06:52:25;;;;;;;20.90;3.63;;;21.10;96.80;;;;;;10552613;28;20219;-40
2023/09/28 06:57:27;;;;;;;23.75;3.78;;;20.50;97.90;;;;;;10568956;28;20048;-36
2023/09/28 07:02:31;;;;;;;33.40;4.28;;;20.40;99.10;;;;;;10568927;27;20052;-36
2023/09/28 07:07:33;;;;;;;29.67;3.83;;;20.90;96.50;;;;;;10549586;28;20194;-38
2023/09/28 07:12:35;;;;;;;;;;;20.40;98.60;;;;;;10564601;28;20691;-39
2023/09/28 07:17:38;;;;;;;21.08;3.60;;;20.20;99.30;;;;;;10559728;28;20431;-33
2023/09/28 07:22:40;;;;;;;15.48;3.00;;;19.90;99.90;;;;;;10558120;28;20127;-39
2023/09/28 07:27:42;;;;;;;31.50;5.35;;;19.80;99.90;;;;;;10563869;28;20036;-46
2023/09/28 07:32:47;;;;;;;22.58;3.78;;;19.70;99.90;;;;;;10560525;28;20058;-41
2023/09/28 07:37:49;;;;;;;13.45;2.95;;;20.40;98.90;;;;;;10546374;28;20403;-35
2023/09/28 07:42:51;;;;;;;28.10;4.63;;;20.60;98.00;;;;;;10556650;28;20054;-41
2023/09/28 07:47:55;;;;;;;18.80;3.47;;;19.90;99.90;;;;;;10544645;28;20135;-39
2023/09/28 07:52:57;;;;;;;13.88;3.08;;;20.50;99.10;;;;;;10564960;28;20131;-33
2023/09/28 07:57:59;;;;;;;23.75;3.90;;;20.70;98.60;;;;;;10554683;28;20138;-30
2023/09/28 08:03:03;;;;;;;11.35;2.42;;;20.80;97.20;;;;;;10581502;27;20117;-35
2023/09/28 08:08:05;;;;;;;14.65;2.58;;;21.70;94.70;;;;;;10574348;28;20116;-32
2023/09/28 08:13:07;;;;;;;;;;;21.20;96.30;;;;;;10575465;28;20071;-42
2023/09/28 08:18:10;;;;;;;22.50;3.47;;;20.60;97.80;;;;;;10562192;28;19928;-30
2023/09/28 08:23:12;;;;;;;21.85;3.25;;;20.60;98.10;;;;;;10568382;28;20060;-40
2023/09/28 08:28:15;;;;;;;19.20;3.88;;;21.10;96.60;;;;;;10569102;28;20104;-28
2023/09/28 08:33:19;;;;;;;20.20;4.00;;;20.80;97.60;;;;;;10567546;28;20047;-33
2023/09/28 08:38:21;;;;;;;24.10;4.65;;;19.90;99.90;;;;;;10569488;28;20082;-33
2023/09/28 08:43:24;;;;;;;35.55;4.50;;;19.90;99.90;;;;;;10567992;28;20040;-34
2023/09/28 08:48:30;;;;;;;31.48;5.40;;;19.80;99.90;;;;;;10573679;28;20039;-36
2023/09/28 08:53:33;;;;;;;22.90;4.07;;;20.00;99.90;;;;;;10561052;27;20462;-36
2023/09/28 08:58:35;;;;;;;32.85;3.85;;;20.90;98.00;;;;;;10564697;27;20126;-39
2023/09/28 09:03:40;;;;;;;25.80;4.10;;;20.00;99.20;;;;;;10578306;27;20043;-35
2023/09/28 09:08:48;;;;;;;15.70;3.25;;;19.70;99.90;;;;;;10567484;27;20104;-34
2023/09/28 09:13:51;;;;;;;16.90;2.83;;;19.50;99.90;;;;;;10569614;28;20147;-44
2023/09/28 09:18:55;;;;;;;27.25;4.72;;;20.60;98.40;;;;;;10569902;27;20565;-31
2023/09/28 09:24:04;;;;;;;22.98;3.10;;;19.90;99.60;;;;;;10563968;28;20044;-36
2023/09/28 09:29:07;;;;;;;9.27;1.88;;;20.00;99.80;;;;;;10553955;27;20451;-43
2023/09/28 09:34:12;;;;;;;;;;;21.50;95.60;;;;;;10564900;28;20682;-33
2023/09/28 09:39:22;;;;;;;13.60;2.65;;;21.60;95.20;;;;;;10562229;27;19927;-34
2023/09/28 09:44:26;;;;;;;30.98;3.80;;;20.60;98.90;;;;;;10551642;28;20050;-43
2023/09/28 09:49:30;;;;;;;28.05;4.25;;;20.40;99.80;;;;;;10563308;28;20054;-41
2023/09/28 09:54:34;;;;;;;27.13;3.15;;;20.60;97.80;;;;;;10571159;28;20062;-32
2023/09/28 09:59:40;;;;;;;10.95;2.33;;;20.70;97.60;;;;;;10565030;27;20047;-36
2023/09/28 10:04:44;;;;;;;14.32;2.70;;;21.10;97.00;;;;;;10577248;27;20472;-32
2023/09/28 10:09:47;;;;;;;20.60;3.03;;;20.80;97.50;;;;;;10564552;27;20108;-39
2023/09/28 10:14:49;;;;;;;23.52;3.53;;;20.40;96.60;;;;;;10554730;28;20159;-31
2023/09/28 10:19:54;;;;;;;22.27;3.00;;;20.70;96.00;;;;;;10558446;28;20116;-43
2023/09/28 10:24:57;;;;;;;18.02;2.80;;;20.60;95.90;;;;;;10562653;28;20141;-36
2023/09/28 10:30:18;;;;;;;20.50;2.95;;;20.50;97.90;;;;;;10545084;28;20461;-33
2023/09/28 10:35:30;;;;;;;16.23;2.33;;;20.80;94.60;;;;;;10547025;28;20082;-34
2023/09/28 10:40:34;;;;;;;24.08;3.05;;;20.30;99.10;;;;;;10553795;27;20047;-33
2023/09/28 10:45:37;;;;;;;23.90;4.15;;;20.60;97.50;;;;;;10565368;28;20559;-43
2023/09/28 10:50:42;;;;;;;13.45;3.20;;;20.80;97.20;;;;;;10557545;28;20046;-36
2023/09/28 10:55:43;;;;;;;23.58;3.92;;;21.60;95.00;;;;;;10564500;27;20051;-31
2023/09/28 11:00:46;;;;;;;18.75;3.25;;;21.90;94.40;;;;;;10554070;28;20043;-32
2023/09/28 11:05:50;;;;;;;22.90;3.42;;;20.80;97.90;;;;;;10572917;28;20043;-45
2023/09/28 11:10:55;;;;;;;27.40;4.15;;;21.30;96.20;;;;;;10564312;28;20585;-33
2023/09/28 11:15:57;;;;;;;27.95;3.90;;;20.90;97.90;;;;;;10561427;28;20128;-42
2023/09/28 11:21:03;;;;;;;;;;;19.90;99.90;;;;;;10565882;28;20043;-38
2023/09/28 11:26:05;;;;;;;24.98;3.70;;;20.40;99.90;;;;;;10554001;28;19920;-39
2023/09/28 11:31:11;;;;;;;16.83;2.38;;;21.10;97.40;;;;;;10540050;28;20119;-38
2023/09/28 11:36:18;;;;;;;19.58;3.03;;;21.20;96.70;;;;;;10571309;28;20059;-43
2023/09/28 11:41:21;;;;;;;11.50;2.83;;;20.80;98.70;;;;;;10563737;28;20071;-40
2023/09/28 11:46:24;;;;;;;12.27;2.05;;;21.40;96.30;;;;;;10572198;28;20044;-37
2023/09/28 11:51:29;;;;;;;19.27;2.75;;;21.70;95.20;;;;;;10560972;27;20040;-35
2023/09/28 11:56:31;;;;;;;17.02;3.17;;;21.40;95.30;;;;;;10565965;27;20051;-32
2023/09/28 12:01:33;;;;;;;23.25;3.67;;;21.50;95.50;;;;;;10577459;27;20055;-31
2023/09/28 12:06:37;;;;;;;19.02;3.13;;;21.40;95.70;;;;;;10576577;27;20115;-30
2023/09/28 12:11:39;;;;;;;22.75;3.40;;;21.00;97.20;;;;;;10575505;28;20056;-39
2023/09/28 12:16:42;;;;;;;23.27;3.35;;;21.10;96.60;;;;;;10569031;28;20121;-39
2023/09/28 12:21:46;;;;;;;12.18;3.47;;;20.30;98.70;;;;;;10574110;28;20495;-32
2023/09/28 12:26:49;;;;;;;16.15;2.60;;;19.90;99.90;;;;;;10574572;28;20056;-44
2023/09/28 12:31:51;;;;;;;14.43;2.33;;;21.20;96.80;;;;;;10559662;28;20131;-37
2023/09/28 12:36:57;;;;;;;22.45;2.83;;;21.10;96.00;;;;;;10568186;27;20166;-33
2023/09/28 12:41:59;;;;;;;5.45;1.48;;;20.60;96.90;;;;;;10566107;28;20052;-37
2023/09/28 12:47:01;;;;;;;16.38;2.72;;;22.20;93.90;;;;;;10573389;28;20055;-37
2023/09/28 12:52:05;;;;;;;19.50;3.55;;;22.00;93.20;;;;;;10573852;27;20047;-35
2023/09/28 12:57:08;;;;;;;32.42;2.92;;;21.60;94.50;;;;;;10566836;28;20051;-47
2023/09/28 13:02:10;;;;;;;9.95;2.05;;;21.30;94.40;;;;;;10579147;27;20039;-30
2023/09/28 13:07:13;;;;;;;2.08;1.08;;;21.00;97.90;;;;;;10563494;27;20036;-32
2023/09/28 13:12:16;;;;;;;9.50;2.42;;;21.80;95.90;;;;;;10572513;28;20071;-42
2023/09/28 13:17:18;;;;;;;13.20;2.17;;;21.50;95.50;;;;;;10565724;27;20088;-33
2023/09/28 13:22:23;;;;;;;13.43;2.42;;;20.90;94.00;;;;;;10570124;27;20126;-31
2023/09/28 13:27:25;;;;;;;19.13;2.22;;;20.60;97.30;;;;;;10563089;28;20100;-35
2023/09/28 13:32:27;;;;;;;;;;;20.30;95.70;;;;;;10565610;28;20108;-39
2023/09/28 13:37:32;;;;;;;9.20;2.20;;;21.10;96.10;;;;;;10563857;28;20018;-41
2023/09/28 13:42:33;;;;;;;22.00;3.83;;;21.10;95.60;;;;;;10564267;27;20475;-38
2023/09/28 13:47:36;;;;;;;6.85;1.80;;;21.40;93.30;;;;;;10562900;28;20066;-38
2023/09/28 13:52:39;;;;;;;;;;;22.50;92.00;;;;;;10565883;28;20051;-37
2023/09/28 13:57:42;;;;;;;7.13;1.75;;;22.80;91.00;;;;;;10555070;27;19958;-44
2023/09/28 14:02:45;;;;;;;3.20;0.95;;;22.70;90.70;;;;;;10568860;27;20039;-36
2023/09/28 14:07:49;;;;;;;11.23;1.77;;;23.00;89.60;;;;;;10558581;28;20047;-35
2023/09/28 14:12:51;;;;;;;8.32;1.75;;;22.70;90.30;;;;;;10536947;27;20086;-43
2023/09/28 14:17:55;;;;;;;;;;;22.30;90.90;;;;;;10555855;28;20044;-38
2023/09/28 14:22:59;;;;;;;11.57;2.35;;;22.90;87.40;;;;;;10552129;28;19931;-35
2023/09/28 14:28:00;;;;;;;7.97;2.60;;;23.10;86.30;;;;;;10553686;28;20141;-40
2023/09/28 14:33:02;;;;;;;3.13;1.00;;;23.20;87.80;;;;;;10553087;28;20522;-29
2023/09/28 14:38:06;;;;;;;6.00;1.85;;;23.70;85.30;;;;;;10545678;27;20184;-38
2023/09/28 14:43:07;;;;;;;8.93;2.00;;;23.50;82.80;;;;;;10559767;27;20157;-36
2023/09/28 14:48:09;;;;;;;8.50;1.77;;;22.30;90.40;;;;;;10552553;27;20508;-37
2023/09/28 14:53:15;;;;;;;6.28;1.70;;;22.70;89.00;;;;;;10562903;27;20452;-39
2023/09/28 14:58:17;;;;;;;5.10;1.00;;;22.30;91.90;;;;;;10558393;28;20459;-39
2023/09/28 15:03:21;;;;;;;9.50;1.95;;;22.30;92.80;;;;;;10567176;27;20044;-34
2023/09/28 15:08:24;;;;;;;4.00;1.30;;;22.10;91.00;;;;;;10558357;28;20338;-34
2023/09/28 15:13:26;;;;;;;6.85;1.30;;;22.10;93.50;;;;;;10550680;28;20783;-34
2023/09/28 15:18:28;;;;;;;9.85;0.90;;;23.10;82.90;;;;;;10563829;28;20127;-38
2023/09/28 15:23:31;;;;;;;5.28;0.95;;;23.40;85.60;;;;;;10553592;28;20089;-35
2023/09/28 15:28:35;;;;;;;2.45;0.75;;;23.50;86.60;;;;;;10557683;28;20132;-32
2023/09/28 15:33:36;;;;;;;3.53;1.10;;;23.60;82.80;;;;;;10548987;28;20044;-37
2023/09/28 15:38:40;;;;;;;6.22;1.05;;;23.50;81.50;;;;;;10566864;28;20067;-31
2023/09/28 15:43:42;;;;;;;5.20;1.50;;;23.00;89.10;;;;;;10549204;28;20512;-31
2023/09/28 15:48:44;;;;;;;4.78;0.80;;;23.10;83.70;;;;;;10555219;28;20096;-37
2023/09/28 15:53:47;;;;;;;3.30;0.80;;;22.70;89.90;;;;;;10538882;28;20127;-35
2023/09/28 15:58:49;;;;;;;3.42;0.90;;;23.40;87.40;;;;;;10548645;28;20053;-27
2023/09/28 16:03:53;;;;;;;3.95;0.95;;;23.90;82.90;;;;;;10564220;28;20055;-46
2023/09/28 16:08:56;;;;;;;9.65;1.40;;;23.00;87.10;;;;;;10556466;28;20058;-37
2023/09/28 16:13:58;;;;;;;10.15;1.45;;;22.40;85.80;;;;;;10568673;28;20056;-35
2023/09/28 16:19:01;;;;;;;3.45;1.30;;;22.10;85.90;;;;;;10556432;28;20789;-35
2023/09/28 16:24:04;;;;;;;7.28;1.20;;;22.50;90.00;;;;;;10572936;27;20046;-31
2023/09/28 16:29:06;;;;;;;11.15;1.33;;;22.40;89.20;;;;;;10570478;27;20067;-37
2023/09/28 16:34:08;;;;;;;2.97;0.75;;;22.80;90.40;;;;;;10576608;27;20667;-40
2023/09/28 16:39:11;;;;;;;;;;;24.30;81.50;;;;;;10579157;27;20047;-38
2023/09/28 16:44:13;;;;;;;8.98;1.38;;;24.60;79.40;;;;;;10564643;27;19924;-35
2023/09/28 16:49:14;;;;;;;;;;;24.60;79.60;;;;;;10568639;27;20151;-34
2023/09/28 16:54:18;;;;;;;5.50;1.60;;;24.70;79.60;;;;;;10568958;27;19985;-45
2023/09/28 16:59:20;;;;;;;10.95;1.92;;;24.70;80.00;;;;;;10567751;27;20047;-38
2023/09/28 17:04:22;;;;;;;;;;;24.30;80.70;;;;;;10571154;27;20078;-32
2023/09/28 17:09:25;;;;;;;4.03;1.33;;;24.60;79.80;;;;;;10553257;28;19967;-39
2023/09/28 17:14:27;;;;;;;13.77;1.67;;;24.60;79.10;;;;;;10568115;27;20051;-35
2023/09/28 17:19:29;;;;;;;;;;;24.50;77.40;;;;;;10575466;27;20101;-42
2023/09/28 17:24:32;;;;;;;10.57;1.42;;;24.60;79.10;;;;;;10581636;27;19947;-33
2023/09/28 17:29:34;;;;;;;8.38;1.40;;;24.60;78.70;;;;;;10566014;27;20139;-31
2023/09/28 17:34:36;;;;;;;;;;;24.70;78.50;;;;;;10568734;28;20078;-39
2023/09/28 17:39:39;;;;;;;5.05;1.75;;;24.60;78.80;;;;;;10570495;27;20337;-34
2023/09/28 17:44:42;;;;;;;5.97;1.27;;;24.70;78.10;;;;;;10561914;27;20154;-38
2023/09/28 17:49:44;;;;;;;8.43;1.33;;;24.70;77.90;;;;;;10556359;27;20059;-37
2023/09/28 17:54:47;;;;;;;;;;;24.70;78.00;;;;;;10575433;27;20643;-29
2023/09/28 17:59:49;;;;;;;6.25;1.17;;;24.70;78.00;;;;;;10563552;27;20431;-40
2023/09/28 18:04:51;;;;;;;5.80;1.25;;;24.70;78.00;;;;;;10560688;27;20126;-34
2023/09/28 18:09:54;;;;;;;5.38;1.20;;;24.70;78.30;;;;;;10561946;27;20058;-43
2023/09/28 18:14:56;;;;;;;3.35;1.00;;;24.70;78.40;;;;;;10566221;27;20138;-38
2023/09/28 18:19:58;;;;;;;5.63;1.10;;;24.70;78.50;;;;;;10569247;28;20079;-45
2023/09/28 18:25:01;;;;;;;;;;;24.70;78.80;;;;;;10564732;27;20126;-50
2023/09/28 18:30:03;;;;;;;4.72;1.00;;;24.80;80.10;;;;;;10567677;27;19974;-33
2023/09/28 18:35:06;;;;;;;5.47;1.77;;;24.80;79.50;;;;;;10577061;27;20092;-37
2023/09/28 18:40:10;;;;;;;3.65;1.30;;;24.70;79.50;;;;;;10568552;27;20067;-35
2023/09/28 18:45:12;;;;;;;3.92;1.42;;;24.80;79.50;;;;;;10560237;28;20135;-35
2023/09/28 18:50:15;;;;;;;3.53;1.23;;;24.70;79.40;;;;;;10567229;28;20146;-41
2023/09/28 18:55:18;;;;;;;5.30;1.35;;;24.80;79.10;;;;;;10567723;28;20150;-43
2023/09/28 19:00:21;;;;;;;4.78;1.10;;;24.70;79.10;;;;;;10570362;27;20126;-45
2023/09/28 19:05:23;;;;;;;3.20;1.10;;;24.70;79.10;;;;;;10569520;28;20075;-40
2023/09/28 19:10:26;;;;;;;4.82;1.40;;;24.70;78.50;;;;;;10561374;28;20587;-35
2023/09/28 19:15:28;;;;;;;3.03;1.20;;;24.70;78.50;;;;;;10565500;28;20086;-36
2023/09/28 19:20:31;;;;;;;;;;;24.70;78.20;;;;;;10568560;28;20125;-37
2023/09/28 19:25:36;;;;;;;5.68;1.40;;;24.70;77.90;;;;;;10579720;28;19961;-35
2023/09/28 19:30:38;;;;;;;3.65;1.20;;;24.70;77.80;;;;;;10566283;28;20039;-31
2023/09/28 19:35:40;;;;;;;;;;;24.60;78.30;;;;;;10572724;28;20115;-31
2023/09/28 19:40:44;;;;;;;4.63;1.35;;;24.60;77.50;;;;;;10569702;28;20352;-39
2023/09/28 19:45:45;;;;;;;4.25;1.30;;;24.60;77.50;;;;;;10565250;28;20059;-35
2023/09/28 19:50:48;;;;;;;;;;;24.60;77.40;;;;;;10571230;28;20051;-45
2023/09/28 19:55:51;;;;;;;4.90;1.00;;;24.60;77.40;;;;;;10565872;28;19920;-39
2023/09/28 20:00:53;;;;;;;2.70;1.40;;;24.40;78.60;;;;;;10570351;27;20066;-35
2023/09/28 20:05:55;;;;;;;5.18;1.50;;;24.50;77.60;;;;;;10572323;27;20421;-42
2023/09/28 20:10:58;;;;;;;;;;;24.50;77.60;;;;;;10576192;28;20452;-45
2023/09/28 20:16:00;;;;;;;5.00;1.42;;;24.20;78.90;;;;;;10573946;28;19923;-31
2023/09/28 20:21:03;;;;;;;3.10;1.05;;;24.50;77.40;;;;;;10572251;28;20077;-33
2023/09/28 20:26:06;;;;;;;5.10;1.70;;;24.50;77.10;;;;;;10571305;27;20048;-40
2023/09/28 20:31:08;;;;;;;5.00;1.20;;;24.50;76.90;;;;;;10577963;27;20094;-34
2023/09/28 20:36:10;;;;;;;;;;;24.30;78.00;;;;;;10576553;28;20048;-32
2023/09/28 20:41:13;;;;;;;;;;;24.50;77.10;;;;;;10570163;28;19931;-38
2023/09/28 20:46:16;;;;;;;5.85;1.50;;;24.50;76.70;;;;;;10577988;28;19924;-39
2023/09/28 20:51:18;;;;;;;4.80;1.50;;;24.50;76.60;;;;;;10579301;27;20051;-32
2023/09/28 20:56:22;;;;;;;5.18;1.42;;;24.50;76.50;;;;;;10575331;28;20466;-40
2023/09/28 21:01:23;;;;;;;3.80;1.30;;;24.50;76.40;;;;;;10575852;27;20052;-42
2023/09/28 21:06:25;;;;;;;;;;;24.40;76.40;;;;;;10575706;28;20483;-36
2023/09/28 21:11:28;;;;;;;2.90;1.58;;;24.40;76.30;;;;;;10574384;27;19990;-43
2023/09/28 21:16:30;;;;;;;6.72;1.48;;;24.40;76.20;;;;;;10569335;27;20097;-42
2023/09/28 21:21:32;;;;;;;4.00;1.35;;;24.40;76.20;;;;;;10571640;27;20164;-39
2023/09/28 21:26:35;;;;;;;;;;;24.40;76.10;;;;;;10566256;27;20203;-32
2023/09/28 21:31:37;;;;;;;6.45;1.50;;;24.40;76.10;;;;;;10574276;27;19923;-41
2023/09/28 21:36:39;;;;;;;;;;;24.40;76.10;;;;;;10570105;27;20052;-39
2023/09/28 21:41:42;;;;;;;3.55;1.38;;;24.40;76.10;;;;;;10568724;27;20026;-36
2023/09/28 21:46:44;;;;;;;5.22;1.58;;;24.40;76.10;;;;;;10550520;28;20056;-40
2023/09/28 21:51:46;;;;;;;4.55;1.67;;;24.40;76.00;;;;;;10568981;27;20487;-33
2023/09/28 21:56:49;;;;;;;4.72;1.90;;;24.40;75.90;;;;;;10563369;27;20139;-34
2023/09/28 22:01:51;;;;;;;7.32;1.80;;;24.30;75.80;;;;;;10566960;27;20055;-34
2023/09/28 22:06:53;;;;;;;7.47;1.85;;;24.30;76.00;;;;;;10561826;28;20128;-34
2023/09/28 22:11:57;;;;;;;;;;;24.30;76.10;;;;;;10549980;28;20148;-40
2023/09/28 22:16:59;;;;;;;4.03;1.58;;;24.30;76.10;;;;;;10558642;27;20403;-35
2023/09/28 22:22:01;;;;;;;2.50;1.25;;;24.30;76.20;;;;;;10546107;28;20052;-34
2023/09/28 22:27:12;;;;;;;6.03;1.70;;;24.30;76.10;;;;;;10549055;28;20135;-45
2023/09/28 22:32:14;;;;;;;4.10;1.90;;;24.30;76.00;;;;;;10546745;27;20043;-35
2023/09/28 22:37:16;;;;;;;5.10;2.28;;;24.30;76.00;;;;;;10564374;27;20549;-38
2023/09/28 22:42:19;;;;;;;2.80;1.48;;;24.30;75.90;;;;;;10578592;27;20126;-34
2023/09/28 22:47:22;;;;;;;3.55;1.90;;;24.20;75.90;;;;;;10557371;27;20044;-43
2023/09/28 22:52:26;;;;;;;6.32;1.77;;;24.20;76.00;;;;;;10573582;27;20047;-41
2023/09/28 22:57:29;;;;;;;4.47;1.90;;;24.20;76.20;;;;;;10561661;28;20048;-41
2023/09/28 23:02:31;;;;;;;4.93;1.80;;;24.20;76.00;;;;;;10577217;27;20113;-30
2023/09/28 23:07:32;;;;;;;;;;;24.20;76.10;;;;;;10571146;28;20149;-33
2023/09/28 23:12:35;;;;;;;5.07;1.65;;;24.10;76.10;;;;;;10559553;28;19958;-36
2023/09/28 23:17:37;;;;;;;4.78;1.50;;;24.10;76.00;;;;;;10571655;28;20130;-35
2023/09/28 23:22:41;;;;;;;7.85;2.00;;;24.10;76.00;;;;;;10570164;28;20647;-31
2023/09/28 23:27:45;;;;;;;9.02;1.77;;;24.10;76.00;;;;;;10567667;28;20040;-32
2023/09/28 23:32:48;;;;;;;4.55;1.70;;;24.10;76.00;;;;;;10572988;28;20047;-39
2023/09/28 23:37:54;;;;;;;3.28;1.33;;;24.10;76.00;;;;;;10573545;27;20174;-40
2023/09/28 23:42:57;;;;;;;3.70;1.85;;;24.10;76.10;;;;;;10578824;27;20055;-31
2023/09/28 23:48:01;;;;;;;4.63;1.63;;;24.10;76.00;;;;;;10572704;27;20130;-36
2023/09/28 23:53:05;;;;;;;4.95;1.98;;;24.10;75.90;;;;;;10574307;28;20154;-34
2023/09/28 23:58:09;;;;;;;6.88;2.13;;;24.10;75.90;;;;;;10579275;27;20056;-38
